sensor_id;sensor_type;location;lat;lon;timestamp;pressure;altitude;pressure_sealevel;temperature;humidity
12987;BME280;58897;51.960;5.582;2023-04-01T00:01:01;98869.97;;;9.31;100.00
12987;BME280;58897;51.960;5.582;2023-04-01T00:03:29;98871.00;;;9.30;100.00
12987;BME280;58897;51.960;5.582;2023-04-01T00:05:57;98865.81;;;9.29;100.00
12987;BME280;58897;51.960;5.582;2023-04-01T00:08:25;98870.34;;;9.28;100.00
12987;BME280;58897;51.960;5.582;2023-04-01T00:10:53;98872.88;;;9.30;100.00
12987;BME280;58897;51.960;5.582;2023-04-01T00:13:20;98881.34;;;9.27;100.00
12987;BME280;58897;51.960;5.582;2023-04-01T00:15:48;98872.25;;;9.28;100.00
12987;BME280;58897;51.960;5.582;2023-04-01T00:18:16;98876.97;;;9.26;100.00
12987;BME280;58897;51.960;5.582;2023-04-01T00:20:44;98880.72;;;9.31;100.00
12987;BME280;58897;51.960;5.582;2023-04-01T00:23:11;98884.25;;;9.32;100.00
12987;BME280;58897;51.960;5.582;2023-04-01T00:25:37;98877.84;;;9.33;100.00
12987;BME280;58897;51.960;5.582;2023-04-01T00:28:04;98875.16;;;9.40;100.00
12987;BME280;58897;51.960;5.582;2023-04-01T00:30:30;98879.94;;;9.38;100.00
12987;BME280;58897;51.960;5.582;2023-04-01T00:32:57;98876.81;;;9.34;100.00
12987;BME280;58897;51.960;5.582;2023-04-01T00:35:24;98877.03;;;9.39;100.00
12987;BME280;58897;51.960;5.582;2023-04-01T00:37:51;98885.31;;;9.38;100.00
12987;BME280;58897;51.960;5.582;2023-04-01T00:40:29;98882.63;;;9.44;100.00
12987;BME280;58897;51.960;5.582;2023-04-01T00:42:56;98877.06;;;9.46;100.00
12987;BME280;58897;51.960;5.582;2023-04-01T00:45:38;98878.31;;;9.43;100.00
12987;BME280;58897;51.960;5.582;2023-04-01T00:48:09;98886.16;;;9.45;100.00
12987;BME280;58897;51.960;5.582;2023-04-01T00:50:39;98880.59;;;9.46;100.00
12987;BME280;58897;51.960;5.582;2023-04-01T00:53:08;98884.09;;;9.47;100.00
12987;BME280;58897;51.960;5.582;2023-04-01T00:55:39;98893.00;;;9.47;100.00
12987;BME280;58897;51.960;5.582;2023-04-01T00:58:14;98888.69;;;9.46;100.00
12987;BME280;58897;51.960;5.582;2023-04-01T01:00:41;98893.63;;;9.49;100.00
12987;BME280;58897;51.960;5.582;2023-04-01T01:03:08;98895.94;;;9.46;100.00
12987;BME280;58897;51.960;5.582;2023-04-01T01:06:00;98896.09;;;9.44;100.00
12987;BME280;58897;51.960;5.582;2023-04-01T01:12:12;98895.06;;;9.39;100.00
12987;BME280;58897;51.960;5.582;2023-04-01T01:17:13;98904.59;;;9.41;100.00
12987;BME280;58897;51.960;5.582;2023-04-01T01:23:35;98903.13;;;9.39;100.00
12987;BME280;58897;51.960;5.582;2023-04-01T01:32:09;98909.97;;;9.35;100.00
12987;BME280;58897;51.960;5.582;2023-04-01T01:37:45;98910.81;;;9.35;100.00
12987;BME280;58897;51.960;5.582;2023-04-01T01:40:15;98915.81;;;9.38;100.00
12987;BME280;58897;51.960;5.582;2023-04-01T01:42:46;98917.84;;;9.29;100.00
12987;BME280;58897;51.960;5.582;2023-04-01T01:45:16;98920.94;;;9.26;100.00
12987;BME280;58897;51.960;5.582;2023-04-01T01:47:45;98922.38;;;9.29;100.00
12987;BME280;58897;51.960;5.582;2023-04-01T01:50:13;98917.16;;;9.21;100.00
12987;BME280;58897;51.960;5.582;2023-04-01T01:52:40;98917.56;;;9.18;100.00
12987;BME280;58897;51.960;5.582;2023-04-01T01:55:31;98914.69;;;9.26;100.00
12987;BME280;58897;51.960;5.582;2023-04-01T01:58:04;98918.84;;;9.28;100.00
12987;BME280;58897;51.960;5.582;2023-04-01T02:00:33;98910.72;;;9.15;100.00
12987;BME280;58897;51.960;5.582;2023-04-01T02:03:01;98925.66;;;9.18;100.00
12987;BME280;58897;51.960;5.582;2023-04-01T02:05:29;98923.16;;;9.16;100.00
12987;BME280;58897;51.960;5.582;2023-04-01T02:10:31;98927.53;;;9.17;100.00
12987;BME280;58897;51.960;5.582;2023-04-01T02:13:07;98935.63;;;9.17;100.00
12987;BME280;58897;51.960;5.582;2023-04-01T02:15:37;98932.69;;;9.12;100.00
12987;BME280;58897;51.960;5.582;2023-04-01T02:18:07;98925.84;;;9.16;100.00
12987;BME280;58897;51.960;5.582;2023-04-01T02:20:36;98933.09;;;9.16;100.00
12987;BME280;58897;51.960;5.582;2023-04-01T02:23:04;98933.66;;;9.05;100.00
12987;BME280;58897;51.960;5.582;2023-04-01T02:25:36;98936.84;;;9.15;100.00
12987;BME280;58897;51.960;5.582;2023-04-01T02:28:06;98939.25;;;9.03;100.00
12987;BME280;58897;51.960;5.582;2023-04-01T02:30:36;98934.28;;;9.00;100.00
12987;BME280;58897;51.960;5.582;2023-04-01T02:33:05;98933.03;;;9.03;100.00
12987;BME280;58897;51.960;5.582;2023-04-01T02:35:35;98938.25;;;9.04;100.00
12987;BME280;58897;51.960;5.582;2023-04-01T02:38:03;98945.72;;;9.09;100.00
12987;BME280;58897;51.960;5.582;2023-04-01T02:40:42;98939.06;;;9.05;100.00
12987;BME280;58897;51.960;5.582;2023-04-01T02:43:09;98939.88;;;9.05;100.00
12987;BME280;58897;51.960;5.582;2023-04-01T02:45:35;98941.97;;;9.10;100.00
12987;BME280;58897;51.960;5.582;2023-04-01T02:48:02;98948.81;;;9.06;100.00
12987;BME280;58897;51.960;5.582;2023-04-01T02:50:30;98940.09;;;9.04;100.00
12987;BME280;58897;51.960;5.582;2023-04-01T02:52:56;98949.47;;;9.14;100.00
12987;BME280;58897;51.960;5.582;2023-04-01T02:55:23;98944.03;;;9.01;100.00
12987;BME280;58897;51.960;5.582;2023-04-01T02:57:50;98949.03;;;9.11;100.00
12987;BME280;58897;51.960;5.582;2023-04-01T03:00:17;98945.44;;;8.97;100.00
12987;BME280;58897;51.960;5.582;2023-04-01T03:02:43;98946.09;;;8.99;100.00
12987;BME280;58897;51.960;5.582;2023-04-01T03:05:11;98949.19;;;8.96;100.00
12987;BME280;58897;51.960;5.582;2023-04-01T03:07:38;98955.78;;;8.94;100.00
12987;BME280;58897;51.960;5.582;2023-04-01T03:10:06;98952.72;;;8.97;100.00
12987;BME280;58897;51.960;5.582;2023-04-01T03:12:34;98960.19;;;9.01;100.00
12987;BME280;58897;51.960;5.582;2023-04-01T03:15:01;98962.88;;;9.01;100.00
12987;BME280;58897;51.960;5.582;2023-04-01T03:17:36;98958.66;;;8.92;100.00
12987;BME280;58897;51.960;5.582;2023-04-01T03:20:05;98963.88;;;8.94;100.00
12987;BME280;58897;51.960;5.582;2023-04-01T03:22:32;98958.25;;;8.89;100.00
12987;BME280;58897;51.960;5.582;2023-04-01T03:24:59;98962.19;;;8.93;100.00
12987;BME280;58897;51.960;5.582;2023-04-01T03:27:25;98963.22;;;8.92;100.00
12987;BME280;58897;51.960;5.582;2023-04-01T03:29:52;98960.78;;;8.97;100.00
12987;BME280;58897;51.960;5.582;2023-04-01T03:32:18;98966.56;;;8.94;100.00
12987;BME280;58897;51.960;5.582;2023-04-01T03:34:45;98970.13;;;9.01;100.00
12987;BME280;58897;51.960;5.582;2023-04-01T03:37:11;98965.66;;;8.87;100.00
12987;BME280;58897;51.960;5.582;2023-04-01T03:39:38;98968.03;;;8.96;100.00
12987;BME280;58897;51.960;5.582;2023-04-01T03:42:04;98971.28;;;8.92;100.00
12987;BME280;58897;51.960;5.582;2023-04-01T03:44:33;98968.34;;;8.87;100.00
12987;BME280;58897;51.960;5.582;2023-04-01T03:47:00;98971.50;;;8.90;100.00
12987;BME280;58897;51.960;5.582;2023-04-01T03:49:27;98974.19;;;8.90;100.00
12987;BME280;58897;51.960;5.582;2023-04-01T03:51:54;98974.97;;;8.84;100.00
12987;BME280;58897;51.960;5.582;2023-04-01T03:54:20;98977.91;;;8.89;100.00
12987;BME280;58897;51.960;5.582;2023-04-01T03:56:48;98975.91;;;8.98;100.00
12987;BME280;58897;51.960;5.582;2023-04-01T03:59:15;98977.34;;;9.00;100.00
12987;BME280;58897;51.960;5.582;2023-04-01T04:01:42;98980.03;;;8.94;100.00
12987;BME280;58897;51.960;5.582;2023-04-01T04:04:11;98973.41;;;8.96;100.00
12987;BME280;58897;51.960;5.582;2023-04-01T04:06:39;98977.97;;;8.96;100.00
12987;BME280;58897;51.960;5.582;2023-04-01T04:09:06;98981.88;;;8.93;100.00
12987;BME280;58897;51.960;5.582;2023-04-01T04:11:32;98989.56;;;8.96;100.00
12987;BME280;58897;51.960;5.582;2023-04-01T04:13:59;98990.13;;;8.92;100.00
12987;BME280;58897;51.960;5.582;2023-04-01T04:16:26;98994.75;;;8.98;100.00
12987;BME280;58897;51.960;5.582;2023-04-01T04:18:53;98994.28;;;8.94;100.00
12987;BME280;58897;51.960;5.582;2023-04-01T04:21:19;99000.53;;;8.95;100.00
12987;BME280;58897;51.960;5.582;2023-04-01T04:23:46;99004.44;;;8.92;100.00
12987;BME280;58897;51.960;5.582;2023-04-01T04:26:13;99014.03;;;9.01;100.00
12987;BME280;58897;51.960;5.582;2023-04-01T04:28:40;99010.97;;;9.04;100.00
12987;BME280;58897;51.960;5.582;2023-04-01T04:31:07;99013.91;;;9.09;100.00
12987;BME280;58897;51.960;5.582;2023-04-01T04:33:34;99011.78;;;9.05;100.00
12987;BME280;58897;51.960;5.582;2023-04-01T04:36:02;99021.31;;;9.07;100.00
12987;BME280;58897;51.960;5.582;2023-04-01T04:38:29;99028.38;;;9.08;100.00
12987;BME280;58897;51.960;5.582;2023-04-01T04:40:58;99025.22;;;8.98;100.00
12987;BME280;58897;51.960;5.582;2023-04-01T04:43:24;99028.75;;;8.99;100.00
12987;BME280;58897;51.960;5.582;2023-04-01T04:45:51;99030.00;;;9.03;100.00
12987;BME280;58897;51.960;5.582;2023-04-01T04:48:18;99025.31;;;9.11;100.00
12987;BME280;58897;51.960;5.582;2023-04-01T04:50:50;99025.25;;;9.05;100.00
12987;BME280;58897;51.960;5.582;2023-04-01T04:53:18;99033.53;;;9.03;100.00
12987;BME280;58897;51.960;5.582;2023-04-01T04:55:46;99036.66;;;9.07;100.00
12987;BME280;58897;51.960;5.582;2023-04-01T04:58:14;99042.94;;;9.14;100.00
12987;BME280;58897;51.960;5.582;2023-04-01T05:00:41;99043.38;;;9.17;100.00
12987;BME280;58897;51.960;5.582;2023-04-01T05:03:08;99051.28;;;9.25;100.00
12987;BME280;58897;51.960;5.582;2023-04-01T05:05:35;99058.31;;;9.20;100.00
12987;BME280;58897;51.960;5.582;2023-04-01T05:08:02;99052.56;;;9.29;100.00
12987;BME280;58897;51.960;5.582;2023-04-01T05:10:28;99051.34;;;9.32;100.00
12987;BME280;58897;51.960;5.582;2023-04-01T05:12:55;99062.72;;;9.34;100.00
12987;BME280;58897;51.960;5.582;2023-04-01T05:15:22;99060.66;;;9.29;100.00
12987;BME280;58897;51.960;5.582;2023-04-01T05:17:48;99062.72;;;9.34;100.00
12987;BME280;58897;51.960;5.582;2023-04-01T05:20:16;99075.44;;;9.40;100.00
12987;BME280;58897;51.960;5.582;2023-04-01T05:22:43;99068.97;;;9.35;100.00
12987;BME280;58897;51.960;5.582;2023-04-01T05:25:09;99085.16;;;9.41;100.00
12987;BME280;58897;51.960;5.582;2023-04-01T05:27:36;99080.19;;;9.38;100.00
12987;BME280;58897;51.960;5.582;2023-04-01T05:30:04;99085.59;;;9.45;100.00
12987;BME280;58897;51.960;5.582;2023-04-01T05:32:31;99084.59;;;9.46;100.00
12987;BME280;58897;51.960;5.582;2023-04-01T05:34:58;99093.69;;;9.45;100.00
12987;BME280;58897;51.960;5.582;2023-04-01T05:37:24;99100.53;;;9.41;100.00
12987;BME280;58897;51.960;5.582;2023-04-01T05:39:51;99102.84;;;9.50;100.00
12987;BME280;58897;51.960;5.582;2023-04-01T05:42:18;99106.38;;;9.51;100.00
12987;BME280;58897;51.960;5.582;2023-04-01T05:44:44;99112.16;;;9.48;100.00
12987;BME280;58897;51.960;5.582;2023-04-01T05:47:11;99118.19;;;9.50;100.00
12987;BME280;58897;51.960;5.582;2023-04-01T05:49:39;99126.34;;;9.56;100.00
12987;BME280;58897;51.960;5.582;2023-04-01T05:52:06;99123.56;;;9.50;100.00
12987;BME280;58897;51.960;5.582;2023-04-01T05:54:33;99132.94;;;9.54;100.00
12987;BME280;58897;51.960;5.582;2023-04-01T05:56:59;99135.25;;;9.57;100.00
12987;BME280;58897;51.960;5.582;2023-04-01T05:59:26;99127.16;;;9.57;100.00
12987;BME280;58897;51.960;5.582;2023-04-01T06:01:52;99137.28;;;9.55;100.00
12987;BME280;58897;51.960;5.582;2023-04-01T06:04:20;99139.81;;;9.56;100.00
12987;BME280;58897;51.960;5.582;2023-04-01T06:06:47;99146.59;;;9.52;100.00
12987;BME280;58897;51.960;5.582;2023-04-01T06:09:16;99152.06;;;9.59;100.00
12987;BME280;58897;51.960;5.582;2023-04-01T06:17:19;99154.59;;;9.67;100.00
12987;BME280;58897;51.960;5.582;2023-04-01T06:25:10;99178.50;;;9.76;100.00
12987;BME280;58897;51.960;5.582;2023-04-01T06:30:44;99175.59;;;9.78;100.00
12987;BME280;58897;51.960;5.582;2023-04-01T06:39:03;99191.50;;;9.66;100.00
12987;BME280;58897;51.960;5.582;2023-04-01T06:41:57;99205.91;;;9.80;100.00
12987;BME280;58897;51.960;5.582;2023-04-01T06:47:42;99204.25;;;9.79;100.00
12987;BME280;58897;51.960;5.582;2023-04-01T06:50:21;99210.66;;;9.78;100.00
12987;BME280;58897;51.960;5.582;2023-04-01T06:53:12;99213.16;;;9.79;100.00
12987;BME280;58897;51.960;5.582;2023-04-01T06:55:52;99212.34;;;9.85;100.00
12987;BME280;58897;51.960;5.582;2023-04-01T06:58:26;99214.56;;;9.75;100.00
12987;BME280;58897;51.960;5.582;2023-04-01T07:00:57;99219.41;;;9.80;100.00
12987;BME280;58897;51.960;5.582;2023-04-01T07:03:37;99221.88;;;9.81;100.00
12987;BME280;58897;51.960;5.582;2023-04-01T07:06:10;99229.13;;;9.81;100.00
12987;BME280;58897;51.960;5.582;2023-04-01T07:08:42;99225.44;;;9.82;100.00
12987;BME280;58897;51.960;5.582;2023-04-01T07:11:14;99230.56;;;9.77;100.00
12987;BME280;58897;51.960;5.582;2023-04-01T07:13:49;99234.34;;;9.82;100.00
12987;BME280;58897;51.960;5.582;2023-04-01T07:16:27;99236.00;;;9.83;100.00
12987;BME280;58897;51.960;5.582;2023-04-01T07:19:04;99244.09;;;9.83;100.00
12987;BME280;58897;51.960;5.582;2023-04-01T07:21:36;99248.25;;;9.86;100.00
12987;BME280;58897;51.960;5.582;2023-04-01T07:24:13;99244.09;;;9.83;100.00
12987;BME280;58897;51.960;5.582;2023-04-01T07:26:43;99260.28;;;9.83;100.00
12987;BME280;58897;51.960;5.582;2023-04-01T07:29:13;99252.63;;;9.87;100.00
12987;BME280;58897;51.960;5.582;2023-04-01T07:34:28;99265.97;;;9.95;100.00
12987;BME280;58897;51.960;5.582;2023-04-01T07:37:06;99271.59;;;10.00;100.00
12987;BME280;58897;51.960;5.582;2023-04-01T07:45:20;99283.28;;;10.07;100.00
12987;BME280;58897;51.960;5.582;2023-04-01T07:48:25;99288.88;;;10.06;100.00
12987;BME280;58897;51.960;5.582;2023-04-01T07:51:12;99294.03;;;10.01;100.00
12987;BME280;58897;51.960;5.582;2023-04-01T07:59:24;99309.03;;;10.10;100.00
12987;BME280;58897;51.960;5.582;2023-04-01T08:14:00;99321.56;;;10.17;100.00
12987;BME280;58897;51.960;5.582;2023-04-01T08:16:23;99335.34;;;10.29;100.00
12987;BME280;58897;51.960;5.582;2023-04-01T08:21:49;99339.38;;;10.39;100.00
12987;BME280;58897;51.960;5.582;2023-04-01T08:24:35;99341.00;;;10.40;100.00
12987;BME280;58897;51.960;5.582;2023-04-01T08:27:23;99345.44;;;10.48;100.00
12987;BME280;58897;51.960;5.582;2023-04-01T08:32:36;99352.03;;;10.39;100.00
12987;BME280;58897;51.960;5.582;2023-04-01T08:35:21;99353.50;;;10.41;100.00
12987;BME280;58897;51.960;5.582;2023-04-01T08:37:56;99361.66;;;10.48;100.00
12987;BME280;58897;51.960;5.582;2023-04-01T08:40:45;99363.75;;;10.52;100.00
12987;BME280;58897;51.960;5.582;2023-04-01T08:46:35;99377.03;;;10.54;100.00
12987;BME280;58897;51.960;5.582;2023-04-01T08:49:19;99375.41;;;10.60;100.00
12987;BME280;58897;51.960;5.582;2023-04-01T08:52:13;99377.50;;;10.64;100.00
12987;BME280;58897;51.960;5.582;2023-04-01T08:54:56;99385.13;;;10.54;100.00
12987;BME280;58897;51.960;5.582;2023-04-01T08:57:55;99388.81;;;10.46;100.00
12987;BME280;58897;51.960;5.582;2023-04-01T09:05:56;99406.31;;;10.50;100.00
12987;BME280;58897;51.960;5.582;2023-04-01T09:20:17;99420.72;;;10.64;100.00
12987;BME280;58897;51.960;5.582;2023-04-01T09:28:33;99429.66;;;10.65;100.00
12987;BME280;58897;51.960;5.582;2023-04-01T09:34:07;99441.78;;;10.75;100.00
12987;BME280;58897;51.960;5.582;2023-04-01T09:56:39;99463.31;;;10.96;100.00
12987;BME280;58897;51.960;5.582;2023-04-01T10:05:24;99474.28;;;11.29;100.00
12987;BME280;58897;51.960;5.582;2023-04-01T10:08:09;99477.94;;;11.49;100.00
12987;BME280;58897;51.960;5.582;2023-04-01T10:20:05;99479.53;;;11.31;100.00
12987;BME280;58897;51.960;5.582;2023-04-01T10:25:41;99490.41;;;11.09;100.00
12987;BME280;58897;51.960;5.582;2023-04-01T10:31:24;99490.69;;;11.62;100.00
12987;BME280;58897;51.960;5.582;2023-04-01T10:37:21;99497.88;;;11.42;100.00
12987;BME280;58897;51.960;5.582;2023-04-01T10:46:08;99501.28;;;12.17;100.00
12987;BME280;58897;51.960;5.582;2023-04-01T10:54:45;99487.06;;;13.84;100.00
12987;BME280;58897;51.960;5.582;2023-04-01T11:00:10;99474.81;;;13.69;100.00
12987;BME280;58897;51.960;5.582;2023-04-01T11:06:04;99476.19;;;13.84;100.00
12987;BME280;58897;51.960;5.582;2023-04-01T11:08:54;99473.03;;;13.49;100.00
12987;BME280;58897;51.960;5.582;2023-04-01T11:17:44;99487.31;;;13.06;100.00
12987;BME280;58897;51.960;5.582;2023-04-01T11:23:50;99495.47;;;12.66;100.00
12987;BME280;58897;51.960;5.582;2023-04-01T11:42:57;99528.59;;;13.14;100.00
12987;BME280;58897;51.960;5.582;2023-04-01T11:45:35;99527.94;;;13.38;100.00
12987;BME280;58897;51.960;5.582;2023-04-01T11:51:07;99526.91;;;13.20;100.00
12987;BME280;58897;51.960;5.582;2023-04-01T11:56:44;99534.66;;;12.64;100.00
12987;BME280;58897;51.960;5.582;2023-04-01T12:02:03;99559.34;;;12.02;100.00
12987;BME280;58897;51.960;5.582;2023-04-01T12:04:38;99574.53;;;12.03;100.00
12987;BME280;58897;51.960;5.582;2023-04-01T12:07:18;99581.66;;;12.17;100.00
12987;BME280;58897;51.960;5.582;2023-04-01T12:10:16;99582.81;;;11.95;100.00
12987;BME280;58897;51.960;5.582;2023-04-01T12:18:17;99595.19;;;12.17;100.00
12987;BME280;58897;51.960;5.582;2023-04-01T12:20:57;99590.41;;;12.25;100.00
12987;BME280;58897;51.960;5.582;2023-04-01T12:29:18;99601.91;;;12.27;100.00
12987;BME280;58897;51.960;5.582;2023-04-01T12:39:58;99625.59;;;12.19;100.00
12987;BME280;58897;51.960;5.582;2023-04-01T12:42:44;99623.75;;;12.26;100.00
12987;BME280;58897;51.960;5.582;2023-04-01T12:48:09;99627.16;;;12.48;100.00
12987;BME280;58897;51.960;5.582;2023-04-01T12:56:03;99628.66;;;12.83;100.00
12987;BME280;58897;51.960;5.582;2023-04-01T12:58:53;99644.91;;;12.70;100.00
12987;BME280;58897;51.960;5.582;2023-04-01T13:15:16;99647.50;;;13.11;100.00
12987;BME280;58897;51.960;5.582;2023-04-01T13:17:48;99659.13;;;13.05;100.00
12987;BME280;58897;51.960;5.582;2023-04-01T13:20:38;99662.00;;;12.70;100.00
12987;BME280;58897;51.960;5.582;2023-04-01T13:26:10;99664.25;;;12.60;100.00
12987;BME280;58897;51.960;5.582;2023-04-01T13:28:49;99673.72;;;12.90;100.00
12987;BME280;58897;51.960;5.582;2023-04-01T13:34:19;99669.28;;;12.70;100.00
12987;BME280;58897;51.960;5.582;2023-04-01T13:42:31;99687.56;;;12.48;100.00
12987;BME280;58897;51.960;5.582;2023-04-01T13:45:14;99691.50;;;12.39;100.00
12987;BME280;58897;51.960;5.582;2023-04-01T13:55:43;99708.81;;;12.45;100.00
12987;BME280;58897;51.960;5.582;2023-04-01T14:06:37;99710.31;;;12.13;100.00
12987;BME280;58897;51.960;5.582;2023-04-01T14:09:29;99716.97;;;12.10;100.00
12987;BME280;58897;51.960;5.582;2023-04-01T14:12:04;99724.50;;;12.15;100.00
12987;BME280;58897;51.960;5.582;2023-04-01T14:23:12;99736.97;;;12.09;100.00
12987;BME280;58897;51.960;5.582;2023-04-01T14:42:08;99766.09;;;11.73;100.00
12987;BME280;58897;51.960;5.582;2023-04-01T14:47:51;99775.59;;;11.69;100.00
12987;BME280;58897;51.960;5.582;2023-04-01T14:50:23;99777.00;;;11.65;100.00
12987;BME280;58897;51.960;5.582;2023-04-01T14:55:54;99789.50;;;11.66;100.00
12987;BME280;58897;51.960;5.582;2023-04-01T14:58:23;99785.94;;;11.65;100.00
12987;BME280;58897;51.960;5.582;2023-04-01T15:01:09;99799.22;;;11.60;100.00
12987;BME280;58897;51.960;5.582;2023-04-01T15:21:09;99856.53;;;11.28;100.00
12987;BME280;58897;51.960;5.582;2023-04-01T15:23:49;99848.59;;;11.27;100.00
12987;BME280;58897;51.960;5.582;2023-04-01T15:45:24;99891.06;;;11.11;100.00
12987;BME280;58897;51.960;5.582;2023-04-01T15:48:11;99896.28;;;11.13;100.00
12987;BME280;58897;51.960;5.582;2023-04-01T15:51:17;99911.41;;;11.07;100.00
12987;BME280;58897;51.960;5.582;2023-04-01T15:53:56;99902.50;;;11.13;100.00
12987;BME280;58897;51.960;5.582;2023-04-01T15:57:01;99908.75;;;11.14;100.00
12987;BME280;58897;51.960;5.582;2023-04-01T16:08:08;99935.41;;;11.17;100.00
12987;BME280;58897;51.960;5.582;2023-04-01T16:11:03;99936.72;;;11.06;100.00
12987;BME280;58897;51.960;5.582;2023-04-01T16:13:46;99943.47;;;11.10;100.00
12987;BME280;58897;51.960;5.582;2023-04-01T16:22:01;99955.84;;;11.05;100.00
12987;BME280;58897;51.960;5.582;2023-04-01T16:27:42;99964.22;;;10.95;100.00
12987;BME280;58897;51.960;5.582;2023-04-01T16:30:35;99963.94;;;10.90;100.00
12987;BME280;58897;51.960;5.582;2023-04-01T16:41:07;99992.53;;;10.85;100.00
12987;BME280;58897;51.960;5.582;2023-04-01T16:43:42;99999.56;;;10.79;100.00
12987;BME280;58897;51.960;5.582;2023-04-01T16:46:34;100000.72;;;10.77;100.00
12987;BME280;58897;51.960;5.582;2023-04-01T16:54:28;100023.53;;;10.60;100.00
12987;BME280;58897;51.960;5.582;2023-04-01T17:00:03;100034.16;;;10.61;100.00
12987;BME280;58897;51.960;5.582;2023-04-01T17:02:52;100045.34;;;10.58;100.00
12987;BME280;58897;51.960;5.582;2023-04-01T17:05:39;100051.56;;;10.59;100.00
12987;BME280;58897;51.960;5.582;2023-04-01T17:13:57;100061.41;;;10.51;100.00
12987;BME280;58897;51.960;5.582;2023-04-01T17:22:27;100081.94;;;10.38;100.00
12987;BME280;58897;51.960;5.582;2023-04-01T17:25:17;100093.72;;;10.45;100.00
12987;BME280;58897;51.960;5.582;2023-04-01T17:28:11;100093.94;;;10.35;100.00
12987;BME280;58897;51.960;5.582;2023-04-01T17:39:35;100124.47;;;10.05;100.00
12987;BME280;58897;51.960;5.582;2023-04-01T17:42:16;100126.66;;;10.02;100.00
12987;BME280;58897;51.960;5.582;2023-04-01T17:44:53;100145.19;;;10.13;100.00
12987;BME280;58897;51.960;5.582;2023-04-01T17:47:49;100145.41;;;10.03;100.00
12987;BME280;58897;51.960;5.582;2023-04-01T17:55:46;100156.94;;;9.81;100.00
12987;BME280;58897;51.960;5.582;2023-04-01T17:58:19;100170.09;;;9.84;100.00
12987;BME280;58897;51.960;5.582;2023-04-01T18:04:17;100195.44;;;9.75;100.00
12987;BME280;58897;51.960;5.582;2023-04-01T18:09:37;100199.13;;;9.74;100.00
12987;BME280;58897;51.960;5.582;2023-04-01T18:23:12;100236.91;;;9.74;100.00
12987;BME280;58897;51.960;5.582;2023-04-01T18:25:44;100227.63;;;9.76;100.00
12987;BME280;58897;51.960;5.582;2023-04-01T18:33:32;100254.13;;;9.57;100.00
12987;BME280;58897;51.960;5.582;2023-04-01T18:39:15;100264.22;;;9.63;100.00
12987;BME280;58897;51.960;5.582;2023-04-01T18:44:50;100278.75;;;9.54;100.00
12987;BME280;58897;51.960;5.582;2023-04-01T18:47:30;100285.78;;;9.47;100.00
12987;BME280;58897;51.960;5.582;2023-04-01T18:50:26;100294.06;;;9.45;100.00
12987;BME280;58897;51.960;5.582;2023-04-01T18:52:59;100302.34;;;9.44;100.00
12987;BME280;58897;51.960;5.582;2023-04-01T18:55:47;100308.88;;;9.41;100.00
12987;BME280;58897;51.960;5.582;2023-04-01T18:58:34;100312.09;;;9.45;100.00
12987;BME280;58897;51.960;5.582;2023-04-01T19:03:41;100327.59;;;9.26;100.00
12987;BME280;58897;51.960;5.582;2023-04-01T19:06:20;100331.44;;;9.16;100.00
12987;BME280;58897;51.960;5.582;2023-04-01T19:08:48;100342.41;;;9.14;100.00
12987;BME280;58897;51.960;5.582;2023-04-01T19:11:43;100348.47;;;9.24;100.00
12987;BME280;58897;51.960;5.582;2023-04-01T19:22:31;100359.88;;;9.02;100.00
12987;BME280;58897;51.960;5.582;2023-04-01T19:25:30;100381.63;;;9.09;100.00
12987;BME280;58897;51.960;5.582;2023-04-01T19:36:54;100401.84;;;9.13;100.00
12987;BME280;58897;51.960;5.582;2023-04-01T19:42:55;100406.19;;;9.06;100.00
12987;BME280;58897;51.960;5.582;2023-04-01T19:45:47;100412.09;;;9.01;100.00
12987;BME280;58897;51.960;5.582;2023-04-01T19:54:13;100416.06;;;8.81;100.00
12987;BME280;58897;51.960;5.582;2023-04-01T19:59:58;100436.81;;;8.89;100.00
12987;BME280;58897;51.960;5.582;2023-04-01T20:08:12;100449.03;;;8.75;100.00
12987;BME280;58897;51.960;5.582;2023-04-01T20:16:07;100473.75;;;8.79;100.00
12987;BME280;58897;51.960;5.582;2023-04-01T20:21:18;100493.59;;;8.69;100.00
12987;BME280;58897;51.960;5.582;2023-04-01T20:23:54;100494.00;;;8.83;100.00
12987;BME280;58897;51.960;5.582;2023-04-01T20:26:27;100499.38;;;8.83;100.00
12987;BME280;58897;51.960;5.582;2023-04-01T20:29:17;100504.66;;;8.66;100.00
12987;BME280;58897;51.960;5.582;2023-04-01T20:32:14;100505.63;;;8.57;100.00
12987;BME280;58897;51.960;5.582;2023-04-01T20:40:41;100532.56;;;8.57;100.00
12987;BME280;58897;51.960;5.582;2023-04-01T20:43:42;100537.25;;;8.55;100.00
12987;BME280;58897;51.960;5.582;2023-04-01T20:52:19;100560.78;;;8.53;100.00
12987;BME280;58897;51.960;5.582;2023-04-01T20:58:01;100573.88;;;8.48;100.00
12987;BME280;58897;51.960;5.582;2023-04-01T21:00:40;100580.41;;;8.46;100.00
12987;BME280;58897;51.960;5.582;2023-04-01T21:03:26;100581.28;;;8.29;100.00
12987;BME280;58897;51.960;5.582;2023-04-01T21:06:14;100592.75;;;8.31;100.00
12987;BME280;58897;51.960;5.582;2023-04-01T21:08:58;100592.50;;;8.42;100.00
12987;BME280;58897;51.960;5.582;2023-04-01T21:22:41;100619.88;;;8.37;100.00
12987;BME280;58897;51.960;5.582;2023-04-01T21:25:39;100628.59;;;8.31;100.00
12987;BME280;58897;51.960;5.582;2023-04-01T21:31:25;100635.94;;;8.29;100.00
12987;BME280;58897;51.960;5.582;2023-04-01T21:37:12;100660.19;;;8.02;100.00
12987;BME280;58897;51.960;5.582;2023-04-01T21:45:23;100664.66;;;8.11;100.00
12987;BME280;58897;51.960;5.582;2023-04-01T21:48:08;100672.13;;;8.17;100.00
12987;BME280;58897;51.960;5.582;2023-04-01T21:50:45;100678.72;;;8.05;100.00
12987;BME280;58897;51.960;5.582;2023-04-01T22:02:25;100696.16;;;8.01;100.00
12987;BME280;58897;51.960;5.582;2023-04-01T22:05:09;100710.13;;;7.87;100.00
12987;BME280;58897;51.960;5.582;2023-04-01T22:07:52;100714.19;;;7.91;100.00
12987;BME280;58897;51.960;5.582;2023-04-01T22:10:46;100731.34;;;7.80;100.00
12987;BME280;58897;51.960;5.582;2023-04-01T22:13:28;100718.53;;;7.74;100.00